Time;durP1;ratioP1;P1;durP2;ratioP2;P2;SDS_P1;SDS_P2;PMS_P1;PMS_P2;Temp;Humidity;BMP_temperature;BMP_pressure;BME280_temperature;BME280_humidity;BME280_pressure;Samples;Min_cycle;Max_cycle;Signal;HPM_P1;HPM_P2
2021/12/09 00:02:32;;;;;;;7.63;1.90;;;6.50;99.90;;;;;;5029422;28;20565;-93
2021/12/09 00:05:04;;;;;;;6.43;1.50;;;6.40;99.90;;;;;;5030827;28;20205;-93
2021/12/09 00:07:35;;;;;;;5.43;2.53;;;6.30;99.90;;;;;;5031993;28;20201;-93
2021/12/09 00:10:09;;;;;;;7.00;2.50;;;6.30;99.90;;;;;;5035857;28;20210;-93
2021/12/09 00:12:41;;;;;;;7.03;2.13;;;6.20;99.90;;;;;;5030070;28;20636;-93
2021/12/09 00:15:12;;;;;;;10.07;2.70;;;6.20;99.90;;;;;;5032770;28;20200;-91
2021/12/09 00:17:47;;;;;;;6.10;1.80;;;6.20;99.90;;;;;;5029927;28;20202;-93
2021/12/09 00:23:04;;;;;;;8.70;2.83;;;5.90;99.90;;;;;;5032416;28;20217;-92
2021/12/09 00:25:37;;;;;;;4.17;1.70;;;5.90;99.90;;;;;;5032300;28;20209;-94
2021/12/09 00:28:09;;;;;;;4.63;1.67;;;5.80;99.90;;;;;;5018151;28;20265;-96
2021/12/09 00:30:41;;;;;;;6.67;1.70;;;5.60;99.90;;;;;;5014544;28;20217;-94
2021/12/09 00:33:16;;;;;;;7.27;1.80;;;5.50;99.90;;;;;;5023789;28;20214;-95
2021/12/09 00:43:34;;;;;;;8.20;2.20;;;4.90;99.90;;;;;;5062425;28;20369;-93
2021/12/09 00:46:06;;;;;;;10.20;1.40;;;4.90;99.90;;;;;;5063722;28;20196;-95
2021/12/09 00:48:44;;;;;;;10.00;1.80;;;4.80;99.90;;;;;;5045098;28;20217;-94
2021/12/09 00:51:29;;;;;;;6.30;1.50;;;4.80;99.90;;;;;;5566962;22;20240;-94
2021/12/09 00:54:03;;;;;;;8.57;2.23;;;4.80;99.90;;;;;;5039153;28;20276;-93
2021/12/09 00:56:34;;;;;;;10.57;2.50;;;4.70;99.90;;;;;;5040512;28;20247;-91
2021/12/09 00:59:06;;;;;;;7.40;2.20;;;4.80;99.90;;;;;;5029130;28;20198;-91
2021/12/09 01:01:38;;;;;;;5.70;1.60;;;4.80;99.90;;;;;;5038690;28;20197;-91
2021/12/09 01:04:12;;;;;;;5.27;1.27;;;4.70;99.90;;;;;;5039634;28;20205;-91
2021/12/09 01:06:44;;;;;;;8.57;1.47;;;4.60;99.90;;;;;;5033486;28;20228;-90
2021/12/09 01:09:17;;;;;;;5.33;1.50;;;4.50;99.90;;;;;;5019910;28;20201;-87
2021/12/09 01:11:48;;;;;;;8.87;2.57;;;4.50;99.90;;;;;;5009992;28;20213;-86
2021/12/09 01:14:19;;;;;;;6.97;2.10;;;4.50;99.90;;;;;;5035383;28;20240;-90
2021/12/09 01:16:52;;;;;;;9.27;2.10;;;4.60;99.90;;;;;;5025653;28;20260;-90
2021/12/09 01:19:25;;;;;;;8.63;2.20;;;4.70;99.90;;;;;;5024542;28;20225;-90
2021/12/09 01:22:00;;;;;;;5.13;1.90;;;4.70;99.90;;;;;;5030948;28;20225;-91
2021/12/09 01:24:32;;;;;;;5.73;1.53;;;4.80;99.90;;;;;;5035594;28;20196;-90
2021/12/09 01:27:04;;;;;;;10.83;1.80;;;4.80;99.90;;;;;;5029793;28;20213;-91
2021/12/09 01:29:38;;;;;;;14.83;3.63;;;4.90;99.90;;;;;;5038740;28;20442;-91
2021/12/09 01:32:13;;;;;;;3.77;1.20;;;4.90;99.90;;;;;;5030630;28;20642;-91
2021/12/09 01:34:48;;;;;;;5.63;1.77;;;4.90;99.90;;;;;;5028730;28;20260;-91
2021/12/09 01:53:27;;;;;;;5.53;1.27;;;4.90;99.90;;;;;;5016851;28;20241;-90
2021/12/09 01:56:00;;;;;;;7.00;1.73;;;4.90;99.90;;;;;;5016850;28;20240;-91
2021/12/09 01:58:32;;;;;;;2.30;1.60;;;4.80;99.90;;;;;;5019328;28;20202;-90
2021/12/09 02:01:05;;;;;;;6.87;2.10;;;4.80;99.90;;;;;;5019036;28;20222;-90
2021/12/09 02:03:38;;;;;;;7.53;2.33;;;4.80;99.90;;;;;;5001657;28;20187;-91
2021/12/09 02:06:10;;;;;;;7.17;2.10;;;4.80;99.90;;;;;;5019602;28;20202;-91
2021/12/09 02:08:45;;;;;;;5.53;1.60;;;4.80;99.90;;;;;;5031132;28;20229;-96
2021/12/09 02:11:17;;;;;;;6.07;1.40;;;4.70;99.90;;;;;;5020070;28;20218;-96
2021/12/09 02:13:54;;;;;;;7.37;2.20;;;4.60;99.90;;;;;;4984431;28;20250;-95
2021/12/09 02:16:26;;;;;;;6.57;2.83;;;4.60;99.90;;;;;;5023219;28;20213;-95
2021/12/09 02:18:59;;;;;;;10.00;2.77;;;4.60;99.90;;;;;;5025369;28;20248;-93
2021/12/09 02:21:35;;;;;;;7.57;2.87;;;4.60;99.90;;;;;;5020763;28;20198;-92
2021/12/09 02:24:09;;;;;;;7.27;2.50;;;4.60;99.90;;;;;;5018865;28;20214;-94
2021/12/09 02:26:42;;;;;;;8.30;2.77;;;4.60;99.90;;;;;;5022472;28;20221;-96
2021/12/09 02:29:15;;;;;;;10.27;5.27;;;4.50;99.90;;;;;;5363001;22;20240;-95
2021/12/09 02:31:47;;;;;;;9.57;4.17;;;4.60;99.90;;;;;;5038990;28;20198;-89
2021/12/09 02:34:18;;;;;;;12.00;4.90;;;4.50;99.90;;;;;;5038038;28;20233;-89
2021/12/09 02:36:54;;;;;;;10.13;4.10;;;4.50;99.90;;;;;;5040182;28;20233;-88
2021/12/09 02:39:26;;;;;;;6.93;2.63;;;4.40;99.90;;;;;;5025282;28;20228;-89
2021/12/09 02:42:00;;;;;;;8.27;2.90;;;4.30;99.90;;;;;;5024943;28;20304;-91
2021/12/09 02:44:32;;;;;;;5.47;1.80;;;4.30;99.90;;;;;;5041498;28;20209;-95
2021/12/09 02:49:40;;;;;;;6.33;1.83;;;4.20;99.90;;;;;;5026399;28;20256;-94
2021/12/09 02:52:14;;;;;;;5.60;2.27;;;4.20;99.90;;;;;;5019114;28;20487;-95
2021/12/09 02:54:47;;;;;;;7.07;2.10;;;4.10;99.90;;;;;;5024218;28;20242;-90
2021/12/09 02:57:20;;;;;;;7.43;1.80;;;4.10;99.90;;;;;;5021400;28;20242;-90
2021/12/09 02:59:52;;;;;;;10.37;2.03;;;4.10;99.90;;;;;;5022432;28;20273;-92
2021/12/09 03:02:25;;;;;;;6.07;1.93;;;4.10;99.90;;;;;;5018086;28;20201;-90
2021/12/09 03:04:59;;;;;;;7.10;1.87;;;4.00;99.90;;;;;;5021695;28;20641;-89
2021/12/09 03:07:37;;;;;;;4.77;1.57;;;4.00;99.90;;;;;;5015084;28;20209;-89
2021/12/09 03:10:18;;;;;;;7.73;2.00;;;4.00;99.90;;;;;;5016904;28;20205;-89
2021/12/09 03:12:50;;;;;;;4.27;2.20;;;4.00;99.90;;;;;;5019102;28;20280;-90
2021/12/09 03:15:22;;;;;;;15.00;2.90;;;4.10;99.90;;;;;;5016277;28;20237;-89
2021/12/09 03:17:54;;;;;;;9.17;2.37;;;4.10;99.90;;;;;;5017057;28;20226;-89
2021/12/09 03:20:26;;;;;;;6.50;2.07;;;4.10;99.90;;;;;;5015899;28;20202;-89
2021/12/09 03:22:59;;;;;;;10.17;1.73;;;4.20;99.90;;;;;;5020478;28;20256;-89
2021/12/09 03:25:30;;;;;;;11.70;2.80;;;4.20;99.90;;;;;;5015117;28;20199;-89
2021/12/09 03:28:02;;;;;;;9.30;2.20;;;4.30;99.90;;;;;;5020100;28;20193;-89
2021/12/09 03:30:33;;;;;;;7.27;2.43;;;4.30;99.90;;;;;;5018922;28;20198;-89
2021/12/09 03:33:06;;;;;;;7.97;2.47;;;4.30;99.90;;;;;;5019759;28;20214;-89
2021/12/09 03:35:38;;;;;;;7.20;1.90;;;4.40;99.90;;;;;;5019849;28;20223;-89
2021/12/09 03:38:11;;;;;;;8.57;2.23;;;4.40;99.90;;;;;;5017390;28;20225;-88
2021/12/09 03:40:43;;;;;;;8.53;1.77;;;4.40;99.90;;;;;;5018553;28;20210;-89
2021/12/09 03:43:20;;;;;;;9.10;2.07;;;4.40;99.90;;;;;;5021881;28;20203;-91
2021/12/09 03:45:54;;;;;;;6.30;2.03;;;4.40;99.90;;;;;;5016547;28;20205;-89
2021/12/09 03:48:30;;;;;;;9.37;2.37;;;4.40;99.90;;;;;;5015341;28;20267;-90
2021/12/09 03:51:05;;;;;;;6.30;2.33;;;4.30;99.90;;;;;;5018931;28;20210;-91
2021/12/09 03:53:40;;;;;;;8.07;2.33;;;4.30;99.90;;;;;;5016147;28;20207;-90
2021/12/09 03:56:12;;;;;;;8.50;2.30;;;4.20;99.90;;;;;;5018019;28;20308;-90
2021/12/09 03:58:49;;;;;;;9.70;2.20;;;4.10;99.90;;;;;;5022044;28;20186;-90
2021/12/09 04:01:21;;;;;;;5.03;2.43;;;4.00;99.90;;;;;;5016215;28;20205;-90
2021/12/09 04:03:52;;;;;;;6.40;2.00;;;3.80;99.90;;;;;;5008681;28;20206;-90
2021/12/09 04:06:24;;;;;;;9.40;2.37;;;3.70;99.90;;;;;;5018124;28;20210;-90
2021/12/09 04:08:58;;;;;;;8.17;2.07;;;3.60;99.90;;;;;;5018426;28;20213;-91
2021/12/09 04:11:34;;;;;;;9.43;2.83;;;3.60;99.90;;;;;;5012650;28;20210;-90
2021/12/09 04:14:10;;;;;;;7.83;1.70;;;3.50;99.90;;;;;;5018042;28;20225;-91
2021/12/09 04:16:42;;;;;;;8.17;2.13;;;3.40;99.90;;;;;;5019290;28;20260;-91
2021/12/09 04:19:17;;;;;;;13.23;2.60;;;3.40;99.90;;;;;;5017806;28;20206;-90
2021/12/09 04:21:50;;;;;;;7.70;2.20;;;3.40;99.90;;;;;;5023661;28;20211;-93
2021/12/09 04:24:23;;;;;;;7.70;1.90;;;3.30;99.90;;;;;;5015847;28;20230;-95
2021/12/09 04:26:56;;;;;;;5.13;1.87;;;3.40;99.90;;;;;;5016758;28;20198;-94
2021/12/09 04:29:28;;;;;;;5.60;2.00;;;3.40;99.90;;;;;;5018219;28;20217;-93
2021/12/09 04:31:59;;;;;;;8.47;2.03;;;3.40;99.90;;;;;;5006621;28;20236;-94
2021/12/09 04:34:32;;;;;;;8.13;1.80;;;3.40;99.90;;;;;;5014983;28;20305;-93
2021/12/09 04:37:04;;;;;;;6.23;2.27;;;3.40;99.90;;;;;;5016603;28;20238;-93
2021/12/09 04:39:42;;;;;;;5.77;1.67;;;3.40;99.90;;;;;;5017011;28;20208;-93
2021/12/09 04:42:16;;;;;;;5.40;1.70;;;3.40;99.90;;;;;;5017287;28;20214;-94
2021/12/09 04:44:47;;;;;;;6.67;2.27;;;3.30;99.90;;;;;;5020463;28;20214;-93
2021/12/09 04:47:19;;;;;;;10.13;2.20;;;3.30;99.90;;;;;;5011704;28;20225;-94
2021/12/09 04:49:50;;;;;;;6.93;2.27;;;3.30;99.90;;;;;;5008161;28;20220;-94
2021/12/09 04:52:21;;;;;;;8.10;2.87;;;3.30;99.90;;;;;;5011731;28;20221;-93
2021/12/09 04:54:57;;;;;;;6.73;2.10;;;3.30;99.90;;;;;;5009625;28;20573;-93
2021/12/09 04:57:28;;;;;;;6.43;2.40;;;3.30;99.90;;;;;;5004680;28;20237;-93
2021/12/09 05:00:01;;;;;;;6.30;1.87;;;3.30;99.90;;;;;;5010162;28;20214;-93
2021/12/09 05:02:45;;;;;;;6.63;1.80;;;3.30;99.90;;;;;;5019974;28;20269;-92
2021/12/09 05:05:17;;;;;;;4.83;1.80;;;3.40;99.90;;;;;;5021527;28;20232;-93
2021/12/09 05:07:49;;;;;;;8.90;2.00;;;3.50;99.90;;;;;;5011940;28;20266;-93
2021/12/09 05:10:25;;;;;;;7.47;1.90;;;3.60;99.90;;;;;;5016837;28;20211;-94
2021/12/09 05:13:08;;;;;;;6.25;1.70;;;3.60;99.90;;;;;;4669943;28;10001302;-92
2021/12/09 05:15:40;;;;;;;5.77;1.83;;;3.70;99.90;;;;;;5018646;28;20228;-92
2021/12/09 05:18:14;;;;;;;2.77;1.43;;;3.60;99.90;;;;;;5018524;28;20197;-93
2021/12/09 05:20:46;;;;;;;6.43;2.57;;;3.60;99.90;;;;;;5018849;28;20198;-91
2021/12/09 05:23:20;;;;;;;5.40;2.17;;;3.70;99.90;;;;;;5019374;28;20212;-90
2021/12/09 05:25:54;;;;;;;6.00;1.90;;;3.80;99.90;;;;;;5016119;28;20205;-95
2021/12/09 05:28:31;;;;;;;7.43;1.63;;;3.80;99.90;;;;;;5009640;28;20210;-91
2021/12/09 05:33:58;;;;;;;6.63;1.93;;;3.90;99.90;;;;;;5013519;28;20218;-92
2021/12/09 05:36:34;;;;;;;8.07;1.67;;;3.90;99.90;;;;;;5019127;28;20210;-91
2021/12/09 05:39:09;;;;;;;7.80;2.03;;;4.00;99.90;;;;;;5018381;28;20265;-90
2021/12/09 05:41:45;;;;;;;6.13;1.40;;;3.90;99.90;;;;;;5012657;28;20217;-91
2021/12/09 05:44:19;;;;;;;5.27;1.53;;;3.90;99.90;;;;;;5010462;28;20670;-91
2021/12/09 05:46:51;;;;;;;9.17;2.20;;;3.90;99.90;;;;;;5010472;28;20209;-93
2021/12/09 05:49:26;;;;;;;5.37;1.40;;;3.90;99.90;;;;;;5011192;28;20239;-92
2021/12/09 05:52:02;;;;;;;4.53;1.40;;;3.90;99.90;;;;;;5018226;28;20720;-93
2021/12/09 05:54:33;;;;;;;5.20;1.53;;;3.80;99.90;;;;;;5009737;28;20217;-93
2021/12/09 05:57:08;;;;;;;8.73;1.90;;;3.90;99.90;;;;;;5016471;28;20265;-94
2021/12/09 05:59:42;;;;;;;7.07;1.60;;;3.90;99.90;;;;;;5010179;28;20209;-90
2021/12/09 06:02:17;;;;;;;8.37;1.67;;;3.90;99.90;;;;;;5013232;28;20201;-92
2021/12/09 06:04:49;;;;;;;6.87;1.63;;;3.90;99.90;;;;;;5006864;28;20229;-94
2021/12/09 06:07:22;;;;;;;10.30;1.90;;;3.80;99.90;;;;;;5011871;28;20674;-94
2021/12/09 06:09:58;;;;;;;7.10;1.63;;;3.80;99.90;;;;;;5013046;28;20222;-92
2021/12/09 06:12:35;;;;;;;9.63;2.33;;;3.90;99.90;;;;;;5013339;28;20206;-94
2021/12/09 06:15:13;;;;;;;4.97;1.50;;;3.90;99.90;;;;;;5012761;28;20197;-96
2021/12/09 06:23:21;;;;;;;4.27;1.60;;;3.90;99.90;;;;;;5009944;28;20267;-91
2021/12/09 06:25:52;;;;;;;4.90;1.70;;;3.90;99.90;;;;;;5008799;28;20226;-96
2021/12/09 06:28:25;;;;;;;10.80;2.60;;;3.90;99.90;;;;;;5008332;28;20202;-94
2021/12/09 06:30:58;;;;;;;6.17;2.73;;;3.90;99.90;;;;;;5009434;28;20650;-93
2021/12/09 06:33:30;;;;;;;7.13;2.37;;;3.90;99.90;;;;;;5007175;28;20257;-94
2021/12/09 06:36:02;;;;;;;3.00;1.40;;;3.90;99.90;;;;;;5006415;28;20320;-95
2021/12/09 06:38:36;;;;;;;6.20;1.50;;;3.90;99.90;;;;;;5013801;28;20205;-95
2021/12/09 06:41:08;;;;;;;5.90;2.10;;;3.90;99.90;;;;;;5012472;28;20206;-96
2021/12/09 06:43:42;;;;;;;4.00;1.23;;;3.90;99.90;;;;;;5019602;28;20204;-96
2021/12/09 06:46:16;;;;;;;9.30;1.70;;;4.00;99.90;;;;;;5013372;28;20270;-95
2021/12/09 06:48:52;;;;;;;8.67;1.43;;;3.90;99.90;;;;;;5016797;28;20217;-95
2021/12/09 06:51:27;;;;;;;8.40;1.37;;;3.90;99.90;;;;;;5011906;28;20236;-93
2021/12/09 06:54:00;;;;;;;8.87;1.83;;;3.90;99.90;;;;;;5013061;28;20197;-96
2021/12/09 06:56:32;;;;;;;5.10;1.43;;;3.80;99.90;;;;;;5005990;28;20230;-96
2021/12/09 06:59:07;;;;;;;5.33;1.73;;;3.80;99.90;;;;;;5003597;28;20230;-96
2021/12/09 07:01:40;;;;;;;4.67;1.60;;;3.80;99.90;;;;;;4995310;28;20272;-95
2021/12/09 07:04:13;;;;;;;9.33;1.80;;;3.80;99.90;;;;;;5006379;28;20230;-96
2021/12/09 07:06:44;;;;;;;2.70;1.40;;;3.80;99.90;;;;;;5005601;28;20202;-95
2021/12/09 07:09:16;;;;;;;6.60;1.47;;;3.80;99.90;;;;;;5008089;28;20248;-94
2021/12/09 07:11:51;;;;;;;5.50;1.70;;;3.80;99.90;;;;;;5000899;28;20211;-96
2021/12/09 07:14:25;;;;;;;7.93;1.87;;;3.80;99.90;;;;;;4999117;28;20206;-95
2021/12/09 07:17:02;;;;;;;3.70;1.40;;;3.80;99.90;;;;;;5012913;28;20198;-93
2021/12/09 07:19:35;;;;;;;3.90;1.40;;;3.90;99.90;;;;;;5012764;28;20217;-93
2021/12/09 07:22:07;;;;;;;10.43;1.20;;;3.90;99.90;;;;;;5006524;28;20241;-95
2021/12/09 07:24:38;;;;;;;3.83;1.33;;;3.90;99.90;;;;;;4994870;28;20237;-94
2021/12/09 07:27:11;;;;;;;5.17;1.63;;;3.90;99.90;;;;;;5000674;28;20320;-94
2021/12/09 07:29:52;;;;;;;7.63;1.50;;;3.90;99.90;;;;;;4984517;28;20636;-93
2021/12/09 07:32:24;;;;;;;3.93;1.10;;;4.00;99.90;;;;;;5000207;28;20209;-95
2021/12/09 07:34:56;;;;;;;5.47;1.40;;;4.00;99.90;;;;;;5004840;28;20237;-95
2021/12/09 07:37:27;;;;;;;8.30;1.43;;;4.00;99.90;;;;;;5003678;28;20218;-96
2021/12/09 07:39:59;;;;;;;5.77;1.40;;;4.00;99.90;;;;;;5008555;28;20262;-95
2021/12/09 07:42:31;;;;;;;9.30;1.60;;;4.00;99.90;;;;;;5008906;28;20212;-94
2021/12/09 07:45:05;;;;;;;8.00;1.60;;;4.00;99.90;;;;;;5004999;28;20272;-94
2021/12/09 07:47:37;;;;;;;5.03;1.37;;;4.10;99.90;;;;;;4999305;28;20230;-94
2021/12/09 07:50:15;;;;;;;5.10;1.30;;;4.00;99.90;;;;;;4999793;28;20214;-93
2021/12/09 07:52:48;;;;;;;6.93;1.37;;;4.10;99.90;;;;;;5000464;28;20218;-94
2021/12/09 07:55:20;;;;;;;7.37;1.97;;;4.00;99.90;;;;;;5001986;28;20214;-95
2021/12/09 07:57:55;;;;;;;6.20;1.63;;;4.00;99.90;;;;;;5000262;28;20222;-93
2021/12/09 08:00:31;;;;;;;6.37;2.10;;;4.00;99.90;;;;;;5001259;28;20245;-93
2021/12/09 08:03:05;;;;;;;8.37;1.87;;;4.00;99.90;;;;;;5000134;28;20209;-93
2021/12/09 08:05:39;;;;;;;5.43;1.53;;;3.90;99.90;;;;;;4983854;28;20210;-94
2021/12/09 08:08:11;;;;;;;8.27;2.20;;;3.90;99.90;;;;;;5000260;28;20225;-93
2021/12/09 08:10:43;;;;;;;6.30;2.20;;;3.80;99.90;;;;;;4999638;28;20210;-95
2021/12/09 08:13:15;;;;;;;6.30;2.20;;;3.90;99.90;;;;;;5000991;28;20302;-94
2021/12/09 08:15:50;;;;;;;8.53;2.10;;;3.90;99.90;;;;;;4999272;28;20234;-94
2021/12/09 08:21:07;;;;;;;5.43;1.77;;;3.80;99.90;;;;;;4996834;28;20229;-93
2021/12/09 08:23:39;;;;;;;10.93;2.50;;;3.80;99.90;;;;;;4998098;28;20234;-94
2021/12/09 08:26:10;;;;;;;4.53;1.90;;;3.70;99.90;;;;;;4998419;28;20237;-94
2021/12/09 08:28:42;;;;;;;7.80;2.00;;;3.80;99.90;;;;;;4998957;28;20238;-95
2021/12/09 08:31:15;;;;;;;5.57;1.67;;;3.80;99.90;;;;;;4998722;28;20218;-95
2021/12/09 08:33:48;;;;;;;4.97;1.60;;;3.70;99.90;;;;;;4997904;28;20226;-95
2021/12/09 08:36:39;;;;;;;3.57;1.47;;;3.60;99.90;;;;;;4998900;28;20218;-94
2021/12/09 08:39:10;;;;;;;4.23;1.20;;;3.60;99.90;;;;;;4991060;28;20194;-95
2021/12/09 08:41:43;;;;;;;7.50;1.87;;;3.50;99.90;;;;;;4998823;28;20259;-95
2021/12/09 08:44:21;;;;;;;4.93;1.33;;;3.50;99.90;;;;;;4985321;28;20206;-95
2021/12/09 08:46:54;;;;;;;5.83;1.87;;;3.50;99.90;;;;;;4998190;28;20240;-95
2021/12/09 08:49:26;;;;;;;10.37;2.37;;;3.40;99.90;;;;;;4999314;28;20198;-96
2021/12/09 08:51:59;;;;;;;10.63;2.00;;;3.40;99.90;;;;;;5000301;28;20322;-93
2021/12/09 08:54:31;;;;;;;8.00;1.60;;;3.40;99.90;;;;;;4999807;28;20233;-94
2021/12/09 08:57:04;;;;;;;6.93;1.53;;;3.30;99.90;;;;;;4997712;28;20214;-94
2021/12/09 08:59:38;;;;;;;4.63;1.70;;;3.30;99.90;;;;;;4998246;28;20597;-95
2021/12/09 09:02:14;;;;;;;3.07;1.10;;;3.20;99.90;;;;;;4998997;28;20204;-95
2021/12/09 09:04:46;;;;;;;4.30;1.27;;;3.20;99.90;;;;;;4991090;28;20229;-94
2021/12/09 09:07:17;;;;;;;5.17;1.40;;;3.20;99.90;;;;;;4987029;28;20202;-96
2021/12/09 09:09:48;;;;;;;6.30;1.30;;;3.20;99.90;;;;;;5000014;28;20225;-94
2021/12/09 09:12:20;;;;;;;2.70;0.93;;;3.20;99.90;;;;;;4999451;28;20300;-95
2021/12/09 09:14:51;;;;;;;12.80;1.73;;;3.20;99.90;;;;;;4998833;28;20211;-96
2021/12/09 09:17:26;;;;;;;6.40;1.37;;;3.20;99.90;;;;;;4998364;28;20245;-95
2021/12/09 09:19:57;;;;;;;6.63;1.40;;;3.20;99.90;;;;;;4999636;28;20240;-95
2021/12/09 09:22:29;;;;;;;7.40;1.37;;;3.20;99.90;;;;;;5003142;28;20242;-95
2021/12/09 09:25:02;;;;;;;3.87;1.30;;;3.20;99.90;;;;;;5013675;28;20205;-95
2021/12/09 09:27:33;;;;;;;8.33;1.43;;;3.30;99.90;;;;;;5019128;28;20246;-94
2021/12/09 09:30:06;;;;;;;6.83;1.80;;;3.30;99.90;;;;;;5018347;28;20213;-95
2021/12/09 09:32:38;;;;;;;5.30;1.37;;;3.30;99.90;;;;;;5005386;28;20593;-93
2021/12/09 09:35:11;;;;;;;7.17;1.43;;;3.30;99.90;;;;;;5004594;28;20570;-94
2021/12/09 09:37:43;;;;;;;5.13;1.70;;;3.40;99.90;;;;;;5002751;28;20230;-93
2021/12/09 09:40:23;;;;;;;8.63;1.50;;;3.40;99.90;;;;;;5003609;28;20210;-93
2021/12/09 09:43:01;;;;;;;3.93;1.03;;;3.40;99.90;;;;;;5003706;28;20249;-93
2021/12/09 09:45:34;;;;;;;6.27;1.60;;;3.50;99.90;;;;;;5002111;28;20236;-93
2021/12/09 09:48:12;;;;;;;5.10;1.40;;;3.50;99.90;;;;;;5002649;28;20256;-94
2021/12/09 09:50:44;;;;;;;4.07;1.10;;;3.50;99.90;;;;;;5002621;28;20237;-93
2021/12/09 09:53:16;;;;;;;5.50;1.40;;;3.60;99.90;;;;;;5002551;28;20230;-94
2021/12/09 09:55:48;;;;;;;4.83;1.47;;;3.60;99.90;;;;;;5011522;28;20237;-93
2021/12/09 09:58:20;;;;;;;6.37;1.37;;;3.60;99.90;;;;;;5023886;28;21047;-94
2021/12/09 10:00:52;;;;;;;5.23;1.50;;;3.60;99.90;;;;;;5020800;28;20242;-94
2021/12/09 10:03:29;;;;;;;5.30;1.40;;;3.60;99.90;;;;;;5022159;28;20296;-96
2021/12/09 10:06:02;;;;;;;4.83;1.13;;;3.60;99.90;;;;;;5008205;28;20272;-94
2021/12/09 10:08:34;;;;;;;4.77;1.40;;;3.60;99.90;;;;;;5002180;28;20321;-94
2021/12/09 10:11:07;;;;;;;5.53;1.17;;;3.70;99.90;;;;;;5001498;28;20310;-94
2021/12/09 10:13:40;;;;;;;5.93;1.50;;;3.70;99.90;;;;;;5001507;28;20202;-94
2021/12/09 10:16:20;;;;;;;7.63;1.40;;;3.70;99.90;;;;;;5000319;28;20305;-94
2021/12/09 10:18:56;;;;;;;5.90;1.37;;;3.70;99.90;;;;;;5002026;28;20237;-95
2021/12/09 10:21:30;;;;;;;6.57;1.50;;;3.70;99.90;;;;;;5002068;28;20302;-95
2021/12/09 10:24:03;;;;;;;6.03;1.70;;;3.70;99.90;;;;;;5001437;28;20234;-92
2021/12/09 10:26:36;;;;;;;5.57;2.00;;;3.80;99.90;;;;;;5001375;28;20732;-94
2021/12/09 10:29:12;;;;;;;7.30;1.30;;;3.80;99.90;;;;;;5002035;28;20229;-94
2021/12/09 10:31:48;;;;;;;8.50;1.60;;;3.70;99.90;;;;;;5001662;28;20252;-94
2021/12/09 10:34:43;;;;;;;2.43;1.33;;;3.70;99.90;;;;;;5000526;28;20237;-94
2021/12/09 10:37:17;;;;;;;5.70;1.70;;;3.70;99.90;;;;;;5000573;28;20244;-94
2021/12/09 10:39:50;;;;;;;5.53;1.70;;;3.70;99.90;;;;;;5001421;28;20206;-94
2021/12/09 10:42:25;;;;;;;7.83;1.50;;;3.80;99.90;;;;;;5001790;28;20297;-93
2021/12/09 10:45:00;;;;;;;9.00;1.37;;;3.70;99.90;;;;;;5001599;28;20302;-93
2021/12/09 10:47:48;;;;;;;7.90;1.30;;;3.80;99.90;;;;;;5001197;28;20297;-94
2021/12/09 10:50:33;;;;;;;5.30;1.27;;;3.80;99.90;;;;;;5001002;28;20697;-95
2021/12/09 10:53:30;;;;;;;3.10;1.17;;;3.70;99.90;;;;;;5000921;28;20233;-95
2021/12/09 10:56:03;;;;;;;12.27;1.67;;;3.70;99.90;;;;;;5001099;28;20218;-95
2021/12/09 10:58:36;;;;;;;5.00;1.17;;;3.70;99.90;;;;;;5000375;28;20277;-94
2021/12/09 11:01:10;;;;;;;4.23;1.33;;;3.70;99.90;;;;;;5000736;28;20273;-93
2021/12/09 11:03:43;;;;;;;6.20;1.27;;;3.70;99.90;;;;;;5004139;28;20281;-93
2021/12/09 11:06:18;;;;;;;5.57;1.53;;;3.70;99.90;;;;;;4996502;28;20224;-94
2021/12/09 11:08:50;;;;;;;5.47;1.43;;;3.70;99.90;;;;;;5023001;28;20233;-93
2021/12/09 11:11:29;;;;;;;5.23;1.10;;;3.70;99.90;;;;;;5018354;28;20203;-93
2021/12/09 11:14:12;;;;;;;5.73;1.17;;;3.70;99.90;;;;;;5017953;28;20234;-95
2021/12/09 11:16:48;;;;;;;3.10;1.00;;;3.70;99.90;;;;;;5017022;28;20217;-94
2021/12/09 11:19:30;;;;;;;5.27;1.17;;;3.70;99.90;;;;;;5011495;28;20274;-94
2021/12/09 11:22:07;;;;;;;4.97;1.20;;;3.70;99.90;;;;;;5011411;28;20218;-93
2021/12/09 11:24:44;;;;;;;2.17;1.10;;;3.80;99.90;;;;;;5010262;28;20213;-94
2021/12/09 11:27:17;;;;;;;5.10;1.07;;;3.80;99.90;;;;;;5002154;28;20293;-93
2021/12/09 11:30:09;;;;;;;2.83;1.40;;;3.80;99.90;;;;;;5001255;28;20269;-92
2021/12/09 11:32:45;;;;;;;5.03;1.20;;;3.80;99.90;;;;;;5001751;28;20344;-92
2021/12/09 11:35:21;;;;;;;3.27;1.40;;;3.80;99.90;;;;;;5012252;28;20210;-91
2021/12/09 11:38:03;;;;;;;5.83;1.57;;;3.90;99.90;;;;;;5017885;28;20225;-94
2021/12/09 11:40:40;;;;;;;4.50;1.20;;;3.90;99.90;;;;;;5017952;28;20186;-93
2021/12/09 11:43:14;;;;;;;8.77;1.83;;;3.90;99.90;;;;;;5011346;28;20213;-93
2021/12/09 11:45:50;;;;;;;4.90;1.23;;;3.90;99.90;;;;;;5004515;28;20230;-93
2021/12/09 11:48:23;;;;;;;7.47;1.50;;;3.90;99.90;;;;;;5000153;28;20593;-94
2021/12/09 11:50:56;;;;;;;4.37;1.43;;;3.80;99.90;;;;;;5000032;28;20273;-93
2021/12/09 11:53:34;;;;;;;5.03;1.63;;;3.70;99.90;;;;;;5000331;28;20230;-93
2021/12/09 11:56:10;;;;;;;8.77;1.20;;;3.70;99.90;;;;;;5001640;28;20242;-93
2021/12/09 11:58:57;;;;;;;4.77;1.37;;;3.70;99.90;;;;;;5001434;28;20274;-93
2021/12/09 12:07:57;;;;;;;5.97;1.40;;;3.70;99.90;;;;;;4979242;28;20214;-93
2021/12/09 12:13:48;;;;;;;3.73;1.17;;;3.70;99.90;;;;;;4972189;28;20294;-92
2021/12/09 12:20:01;;;;;;;6.93;1.30;;;3.60;99.90;;;;;;4981375;28;20194;-94
2021/12/09 12:32:17;;;;;;;8.60;7.73;;;3.60;99.90;;;;;;5001908;28;20628;-95
2021/12/09 12:35:28;;;;;;;8.13;1.40;;;3.50;99.90;;;;;;5000797;28;20220;-93
2021/12/09 12:38:09;;;;;;;2.80;1.83;;;3.60;99.90;;;;;;5000479;28;20233;-94
2021/12/09 12:40:46;;;;;;;6.97;1.40;;;3.60;99.90;;;;;;5000837;28;20293;-95
2021/12/09 12:43:31;;;;;;;3.37;1.27;;;3.60;99.90;;;;;;5000467;28;20297;-94
2021/12/09 12:49:01;;;;;;;5.30;1.50;;;3.60;99.90;;;;;;5001103;28;20292;-95
2021/12/09 12:51:37;;;;;;;4.13;1.97;;;3.60;99.90;;;;;;4999971;28;20214;-95
2021/12/09 12:54:39;;;;;;;4.13;2.00;;;3.70;99.90;;;;;;4999174;28;20256;-96
2021/12/09 12:57:15;;;;;;;7.13;1.33;;;3.60;99.90;;;;;;4997760;28;20233;-95
2021/12/09 13:00:09;;;;;;;6.60;1.47;;;3.60;99.90;;;;;;4998559;28;20233;-94
2021/12/09 13:03:10;;;;;;;2.70;1.23;;;3.60;99.90;;;;;;5000677;28;20210;-94
2021/12/09 13:05:57;;;;;;;6.50;1.37;;;3.60;99.90;;;;;;5001461;28;20244;-95
2021/12/09 13:11:47;;;;;;;4.87;1.47;;;3.70;99.90;;;;;;5014507;28;20182;-94
2021/12/09 13:14:24;;;;;;;4.27;1.50;;;3.60;99.90;;;;;;5014659;28;20237;-92
2021/12/09 13:19:59;;;;;;;4.87;1.50;;;3.60;99.90;;;;;;5005796;28;20216;-95
2021/12/09 13:22:36;;;;;;;3.97;1.17;;;3.60;99.90;;;;;;5016328;28;20221;-94
2021/12/09 13:25:17;;;;;;;3.93;1.30;;;3.70;99.90;;;;;;5011378;28;20202;-93
2021/12/09 13:27:59;;;;;;;3.47;1.30;;;3.70;99.90;;;;;;5004463;28;20706;-95
2021/12/09 13:33:55;;;;;;;5.73;1.27;;;3.70;99.90;;;;;;4982343;28;20211;-95
2021/12/09 13:47:52;;;;;;;8.83;1.10;;;3.60;99.90;;;;;;5001960;28;20246;-95
2021/12/09 13:56:10;;;;;;;2.30;1.17;;;3.60;99.90;;;;;;5006305;28;20241;-95
2021/12/09 13:58:48;;;;;;;5.00;1.20;;;3.60;99.90;;;;;;5007538;28;20217;-92
2021/12/09 14:01:20;;;;;;;3.27;1.37;;;3.60;99.90;;;;;;5008490;28;20210;-91
2021/12/09 14:03:52;;;;;;;3.43;1.20;;;3.60;99.90;;;;;;5034060;22;20202;-93
2021/12/09 14:06:30;;;;;;;2.60;1.10;;;3.60;99.90;;;;;;5021048;28;20213;-94
2021/12/09 14:09:01;;;;;;;2.43;0.97;;;3.60;99.90;;;;;;5030515;28;20189;-93
2021/12/09 14:11:39;;;;;;;6.67;1.30;;;3.60;99.90;;;;;;5035547;28;20261;-94
2021/12/09 14:14:15;;;;;;;2.77;1.10;;;3.70;99.90;;;;;;5027376;28;20209;-95
2021/12/09 14:16:52;;;;;;;3.33;1.27;;;3.70;99.90;;;;;;5027336;28;20232;-94
2021/12/09 14:22:17;;;;;;;4.77;1.63;;;3.70;99.90;;;;;;5020071;28;20212;-94
2021/12/09 14:24:49;;;;;;;5.50;1.37;;;3.70;99.90;;;;;;5024608;28;20273;-94
2021/12/09 14:27:21;;;;;;;3.77;1.40;;;3.70;99.90;;;;;;5022711;28;20268;-94
2021/12/09 14:29:57;;;;;;;4.37;1.37;;;3.70;99.90;;;;;;5024476;28;20245;-94
2021/12/09 14:32:31;;;;;;;2.90;1.10;;;3.70;99.90;;;;;;5023839;28;20674;-96
2021/12/09 14:35:07;;;;;;;6.17;1.07;;;3.70;99.90;;;;;;5023745;28;20665;-93
2021/12/09 14:37:44;;;;;;;2.83;2.07;;;3.70;99.90;;;;;;5022832;28;20213;-94
2021/12/09 14:40:20;;;;;;;4.33;1.53;;;3.70;99.90;;;;;;5021667;28;20212;-94
2021/12/09 14:42:55;;;;;;;2.57;1.20;;;3.80;99.90;;;;;;5006310;28;20233;-95
2021/12/09 14:45:29;;;;;;;3.13;1.20;;;3.70;99.90;;;;;;5001835;28;20263;-93
2021/12/09 14:48:03;;;;;;;2.00;0.97;;;3.70;99.90;;;;;;5010879;28;20274;-95
2021/12/09 14:50:39;;;;;;;3.00;1.20;;;3.80;99.90;;;;;;4659547;28;10000547;-93
2021/12/09 14:53:38;;;;;;;2.73;1.03;;;3.80;99.90;;;;;;5011986;28;20205;-95
2021/12/09 14:56:23;;;;;;;1.50;0.90;;;3.80;99.90;;;;;;5019127;28;20214;-95
2021/12/09 14:58:56;;;;;;;4.73;1.30;;;3.90;99.90;;;;;;5020573;28;20205;-94
2021/12/09 15:01:32;;;;;;;4.47;1.50;;;3.80;99.90;;;;;;5020492;28;20220;-93
2021/12/09 15:04:04;;;;;;;7.07;1.73;;;3.90;99.90;;;;;;5021200;28;20327;-94
2021/12/09 15:06:40;;;;;;;4.97;1.70;;;3.90;99.90;;;;;;5021040;28;20217;-95
2021/12/09 15:09:20;;;;;;;3.17;1.80;;;3.90;99.90;;;;;;5020237;28;20232;-94
2021/12/09 15:11:54;;;;;;;2.77;1.33;;;3.90;99.90;;;;;;5023330;28;20233;-95